createdAt,value
2019-03-21T00:00:59.972Z,1.43
2019-03-21T00:03:29.435Z,1.25
2019-03-21T00:05:59.394Z,1.77
2019-03-21T00:08:28.835Z,0.95
2019-03-21T00:11:30.347Z,3.10
2019-03-21T00:14:07.217Z,1.75
2019-03-21T00:16:34.143Z,3.80
2019-03-21T00:19:03.587Z,0.68
2019-03-21T00:21:33.170Z,0.60
2019-03-21T00:24:02.681Z,2.43
2019-03-21T00:26:53.949Z,0.77
2019-03-21T00:29:23.755Z,1.77
2019-03-21T00:31:54.077Z,0.85
2019-03-21T00:34:24.500Z,2.20
2019-03-21T00:36:54.006Z,2.87
2019-03-21T00:39:32.423Z,0.85
2019-03-21T00:41:54.529Z,0.57
2019-03-21T00:44:25.066Z,0.93
2019-03-21T00:46:54.520Z,0.73
2019-03-21T00:49:23.977Z,1.37
2019-03-21T00:51:53.670Z,0.93
2019-03-21T00:54:23.188Z,1.50
2019-03-21T00:56:52.760Z,1.92
2019-03-21T00:59:22.290Z,0.30
2019-03-21T01:01:51.808Z,3.03
2019-03-21T01:04:24.589Z,3.83
2019-03-21T01:06:54.190Z,0.67
2019-03-21T01:09:23.607Z,1.07
2019-03-21T01:11:52.993Z,1.63
2019-03-21T01:14:29.865Z,1.07
2019-03-21T01:16:53.550Z,0.73
2019-03-21T01:19:23.164Z,1.55
2019-03-21T01:21:52.731Z,2.42
2019-03-21T01:24:23.796Z,0.50
2019-03-21T01:26:54.358Z,1.30
2019-03-21T01:29:23.789Z,0.70
2019-03-21T01:31:54.572Z,1.27
2019-03-21T01:34:24.374Z,0.97
2019-03-21T01:36:54.785Z,1.90
2019-03-21T01:39:24.278Z,1.30
2019-03-21T01:41:53.849Z,1.30
2019-03-21T01:44:23.458Z,0.75
2019-03-21T01:46:52.974Z,2.23
2019-03-21T01:49:22.481Z,0.47
2019-03-21T01:51:51.875Z,0.93
2019-03-21T01:54:22.982Z,1.47
2019-03-21T01:56:52.492Z,1.17
2019-03-21T01:59:22.081Z,1.60
2019-03-21T02:01:51.495Z,2.12
2019-03-21T02:04:21.103Z,1.45
2019-03-21T02:06:50.590Z,0.80
2019-03-21T02:09:21.262Z,0.65
2019-03-21T02:11:50.770Z,2.65
2019-03-21T02:14:21.383Z,0.75
2019-03-21T02:16:50.916Z,1.15
2019-03-21T02:19:20.329Z,0.28
2019-03-21T02:21:49.761Z,0.70
2019-03-21T02:24:19.424Z,0.30
2019-03-21T02:26:48.877Z,0.30
2019-03-21T02:29:19.409Z,1.17
2019-03-21T02:31:48.904Z,0.20
2019-03-21T02:34:18.424Z,1.13
2019-03-21T02:36:48.017Z,0.80
2019-03-21T02:39:17.504Z,0.20
2019-03-21T02:41:47.998Z,0.20
2019-03-21T02:44:17.418Z,0.28
2019-03-21T02:46:47.059Z,0.20
2019-03-21T02:49:16.583Z,0.20
2019-03-21T02:51:46.075Z,0.30
2019-03-21T02:54:15.590Z,0.20
2019-03-21T02:56:45.025Z,0.20
2019-03-21T02:59:14.527Z,0.30
2019-03-21T03:01:44.036Z,0.10
2019-03-21T03:04:13.547Z,0.20
2019-03-21T03:06:42.993Z,0.20
2019-03-21T03:09:12.496Z,0.28
2019-03-21T03:11:42.910Z,0.17
2019-03-21T03:14:12.263Z,0.20
2019-03-21T03:16:41.909Z,0.20
2019-03-21T03:19:12.155Z,0.20
2019-03-21T03:21:41.600Z,0.23
2019-03-21T03:24:11.032Z,0.20
2019-03-21T03:26:41.281Z,0.10
2019-03-21T03:29:10.725Z,0.20
2019-03-21T03:31:40.165Z,0.20
2019-03-21T03:34:09.766Z,0.80
2019-03-21T03:36:39.285Z,0.10
2019-03-21T03:39:08.641Z,0.20
2019-03-21T03:41:38.172Z,0.35
2019-03-21T03:44:08.699Z,0.20
2019-03-21T03:46:38.067Z,0.20
2019-03-21T03:49:07.607Z,0.10
2019-03-21T03:51:37.096Z,0.10
2019-03-21T03:54:06.623Z,0.10
2019-03-21T03:56:35.993Z,0.20
2019-03-21T03:59:07.952Z,0.98
2019-03-21T04:01:38.991Z,0.10
2019-03-21T04:04:10.034Z,0.10
2019-03-21T04:06:39.460Z,0.10
2019-03-21T04:09:09.530Z,0.20
2019-03-21T04:11:40.621Z,0.10
2019-03-21T04:14:09.934Z,0.17
2019-03-21T04:16:39.426Z,0.20
2019-03-21T04:19:08.911Z,0.20
2019-03-21T04:21:38.353Z,0.20
2019-03-21T04:24:07.807Z,0.20
2019-03-21T04:26:37.402Z,0.33
2019-03-21T04:29:06.853Z,0.25
2019-03-21T04:31:36.270Z,0.20
2019-03-21T04:34:11.992Z,0.20
2019-03-21T04:36:41.492Z,0.20
2019-03-21T04:39:10.937Z,0.23
2019-03-21T04:41:42.787Z,0.20
2019-03-21T04:44:12.291Z,1.07
2019-03-21T04:46:41.756Z,0.35
2019-03-21T04:49:12.321Z,0.20
2019-03-21T04:51:41.913Z,0.20
2019-03-21T04:54:11.346Z,0.20
2019-03-21T04:56:42.492Z,0.30
2019-03-21T04:59:11.950Z,0.20
2019-03-21T05:01:42.463Z,0.20
2019-03-21T05:04:11.933Z,0.20
2019-03-21T05:06:41.436Z,0.45
2019-03-21T05:09:14.570Z,0.73
2019-03-21T05:11:44.057Z,0.20
2019-03-21T05:14:13.655Z,0.20
2019-03-21T05:16:44.450Z,0.20
2019-03-21T05:19:26.202Z,0.20
2019-03-21T05:21:55.625Z,0.10
2019-03-21T05:24:25.143Z,0.20
2019-03-21T05:26:54.718Z,0.17
2019-03-21T05:29:26.179Z,0.20
2019-03-21T05:31:55.364Z,0.10
2019-03-21T05:34:25.857Z,0.20
2019-03-21T05:36:55.468Z,0.17
2019-03-21T05:39:25.045Z,0.30
2019-03-21T05:41:54.555Z,0.20
2019-03-21T05:44:30.937Z,0.20
2019-03-21T05:47:00.515Z,0.20
2019-03-21T05:49:29.908Z,0.20
2019-03-21T05:51:59.362Z,0.17
2019-03-21T05:54:28.753Z,0.20
2019-03-21T05:56:59.273Z,0.20
2019-03-21T05:59:30.355Z,0.10
2019-03-21T06:01:59.855Z,0.20
2019-03-21T06:04:29.233Z,0.20
2019-03-21T06:07:11.162Z,0.40
2019-03-21T06:09:40.620Z,0.20
2019-03-21T06:12:10.124Z,0.30
2019-03-21T06:14:48.569Z,0.20
2019-03-21T06:17:19.623Z,0.40
2019-03-21T06:19:55.347Z,0.20
2019-03-21T06:22:43.342Z,1.00
2019-03-21T06:25:24.743Z,0.37
2019-03-21T06:27:54.160Z,0.30
2019-03-21T06:30:23.674Z,0.30
2019-03-21T06:32:53.133Z,0.20
2019-03-21T06:35:22.667Z,0.30
2019-03-21T06:37:52.033Z,0.30
2019-03-21T06:40:21.477Z,0.77
2019-03-21T06:42:50.999Z,0.47
2019-03-21T06:45:20.402Z,0.30
2019-03-21T06:47:49.775Z,1.70
2019-03-21T06:50:19.280Z,0.27
2019-03-21T06:52:48.716Z,0.60
2019-03-21T06:55:18.156Z,0.40
2019-03-21T06:57:48.736Z,0.50
2019-03-21T07:00:19.966Z,0.57
2019-03-21T07:02:49.490Z,0.90
2019-03-21T07:05:19.011Z,0.30
2019-03-21T07:07:48.576Z,0.37
2019-03-21T07:10:18.213Z,1.30
2019-03-21T07:12:47.846Z,1.20
2019-03-21T07:15:17.284Z,0.37
2019-03-21T07:17:47.690Z,0.87
2019-03-21T07:20:17.186Z,0.75
2019-03-21T07:22:46.734Z,0.30
2019-03-21T07:25:16.224Z,0.68
2019-03-21T07:27:45.794Z,0.30
2019-03-21T07:30:21.046Z,0.60
2019-03-21T07:32:52.783Z,0.30
2019-03-21T07:35:22.288Z,0.53
2019-03-21T07:37:51.816Z,0.43
2019-03-21T07:40:21.187Z,0.40
2019-03-21T07:42:50.631Z,0.30
2019-03-21T07:45:20.144Z,0.50
2019-03-21T07:47:49.606Z,0.33
2019-03-21T07:50:19.121Z,0.77
2019-03-21T07:52:49.540Z,0.40
2019-03-21T07:55:19.131Z,0.60
2019-03-21T07:57:48.703Z,0.40
2019-03-21T08:00:19.508Z,0.30
2019-03-21T08:02:49.087Z,0.40
2019-03-21T08:05:19.221Z,0.50
2019-03-21T08:07:48.727Z,0.40
2019-03-21T08:10:18.158Z,0.67
2019-03-21T08:12:47.670Z,0.20
2019-03-21T08:15:17.687Z,0.80
2019-03-21T08:17:47.114Z,1.23
2019-03-21T08:20:17.587Z,0.40
2019-03-21T08:22:47.180Z,0.37
2019-03-21T08:25:17.686Z,0.87
2019-03-21T08:27:47.119Z,2.10
2019-03-21T08:30:25.712Z,0.47
2019-03-21T08:32:55.417Z,0.80
2019-03-21T08:35:26.524Z,0.90
2019-03-21T08:37:56.051Z,0.60
2019-03-21T08:40:26.838Z,0.68
2019-03-21T08:42:56.502Z,0.33
2019-03-21T08:45:26.053Z,0.40
2019-03-21T08:47:56.955Z,0.75
2019-03-21T08:50:26.383Z,0.50
2019-03-21T08:52:55.897Z,1.75
2019-03-21T08:55:25.521Z,0.65
2019-03-21T08:57:56.597Z,1.37
2019-03-21T09:00:34.197Z,1.50
2019-03-21T09:02:57.431Z,0.28
2019-03-21T09:05:26.902Z,0.20
2019-03-21T09:07:56.323Z,0.33
2019-03-21T09:10:25.791Z,0.20
2019-03-21T09:12:56.593Z,0.20
2019-03-21T09:15:26.130Z,0.30
2019-03-21T09:17:55.659Z,0.20
2019-03-21T09:20:25.095Z,0.20
2019-03-21T09:22:54.756Z,0.30
2019-03-21T09:25:25.003Z,0.30
2019-03-21T09:28:02.606Z,0.30
2019-03-21T09:30:25.929Z,0.30
2019-03-21T09:32:55.349Z,0.27
2019-03-21T09:35:25.187Z,1.40
2019-03-21T09:37:55.724Z,0.27
2019-03-21T09:40:25.204Z,0.67
2019-03-21T09:42:56.925Z,0.20
2019-03-21T09:45:26.531Z,0.20
2019-03-21T09:47:56.648Z,0.40
2019-03-21T09:50:30.154Z,0.40
2019-03-21T09:52:59.512Z,0.20
2019-03-21T09:55:28.960Z,0.50
2019-03-21T09:57:58.542Z,1.33
2019-03-21T10:00:34.280Z,0.60
2019-03-21T10:03:04.020Z,0.40
2019-03-21T10:05:33.541Z,0.60
2019-03-21T10:08:02.994Z,0.40
2019-03-21T10:10:34.173Z,0.20
2019-03-21T10:13:04.071Z,0.30
2019-03-21T10:15:33.429Z,0.20
2019-03-21T10:18:02.871Z,0.70
2019-03-21T10:20:32.393Z,0.20
2019-03-21T10:23:01.889Z,0.20
2019-03-21T10:25:32.512Z,0.20
2019-03-21T10:28:01.944Z,1.37
2019-03-21T10:30:33.424Z,0.23
2019-03-21T10:33:04.230Z,0.23
2019-03-21T10:35:33.686Z,0.30
2019-03-21T10:38:03.770Z,0.20
2019-03-21T10:40:33.257Z,0.30
2019-03-21T10:43:02.652Z,0.23
2019-03-21T10:45:32.073Z,0.20
2019-03-21T10:48:01.516Z,0.30
2019-03-21T10:50:38.117Z,0.30
2019-03-21T10:53:08.088Z,0.20
2019-03-21T10:55:39.156Z,0.33
2019-03-21T10:58:08.672Z,0.30
2019-03-21T11:00:38.184Z,0.30
2019-03-21T11:03:07.547Z,0.30
2019-03-21T11:05:36.986Z,0.20
2019-03-21T11:08:06.559Z,0.20
2019-03-21T11:10:36.009Z,0.37
2019-03-21T11:13:05.578Z,0.30
2019-03-21T11:15:35.168Z,0.20
2019-03-21T11:18:04.686Z,0.72
2019-03-21T11:20:36.512Z,0.30
2019-03-21T11:23:06.507Z,0.30
2019-03-21T11:25:36.064Z,0.72
2019-03-21T11:28:05.558Z,0.28
2019-03-21T11:30:40.080Z,0.62
2019-03-21T11:33:09.532Z,0.30
2019-03-21T11:35:42.049Z,0.30
2019-03-21T11:38:11.517Z,0.30
2019-03-21T11:40:41.067Z,0.30
2019-03-21T11:43:11.107Z,0.75
2019-03-21T11:45:40.483Z,0.50
2019-03-21T11:48:10.058Z,0.57
2019-03-21T11:50:39.519Z,0.60
2019-03-21T11:53:08.947Z,1.40
2019-03-21T11:55:38.457Z,1.02
2019-03-21T11:58:08.300Z,0.50
2019-03-21T12:00:44.078Z,1.67
2019-03-21T12:03:08.825Z,0.50
2019-03-21T12:05:38.175Z,1.90
2019-03-21T12:08:07.792Z,1.87
2019-03-21T12:10:38.326Z,1.17
2019-03-21T12:13:07.767Z,0.75
2019-03-21T12:15:38.129Z,0.68
2019-03-21T12:18:07.562Z,0.98
2019-03-21T12:20:36.955Z,1.10
2019-03-21T12:23:06.449Z,1.33
2019-03-21T12:25:35.896Z,1.67
2019-03-21T12:28:05.479Z,0.85
2019-03-21T12:30:40.968Z,0.80
2019-03-21T12:33:10.378Z,0.55
2019-03-21T12:35:40.008Z,1.47
2019-03-21T12:38:09.418Z,0.45
2019-03-21T12:40:38.917Z,0.47
2019-03-21T12:43:08.358Z,2.67
2019-03-21T12:45:37.792Z,1.92
2019-03-21T12:48:07.162Z,1.25
2019-03-21T12:50:36.694Z,2.15
2019-03-21T12:53:06.381Z,0.50
2019-03-21T12:55:35.835Z,0.60
2019-03-21T12:58:05.336Z,1.47
2019-03-21T13:00:41.617Z,1.15
2019-03-21T13:03:11.046Z,1.02
2019-03-21T13:05:40.621Z,0.70
2019-03-21T13:08:10.065Z,1.07
2019-03-21T13:10:40.645Z,0.65
2019-03-21T13:13:11.135Z,0.37
2019-03-21T13:15:40.542Z,1.72
2019-03-21T13:18:10.060Z,0.53
2019-03-21T13:20:39.674Z,1.07
2019-03-21T13:23:09.248Z,1.70
2019-03-21T13:25:38.952Z,2.43
2019-03-21T13:28:08.516Z,0.68
2019-03-21T13:30:37.998Z,1.27
2019-03-21T13:33:07.457Z,1.27
2019-03-21T13:35:36.951Z,0.80
2019-03-21T13:38:07.326Z,1.43
2019-03-21T13:40:36.674Z,1.13
2019-03-21T13:43:06.256Z,3.13
2019-03-21T13:45:36.635Z,2.37
2019-03-21T13:48:06.251Z,1.30
2019-03-21T13:50:35.704Z,1.17
2019-03-21T13:53:17.767Z,2.35
2019-03-21T13:55:55.777Z,1.70
2019-03-21T13:58:25.306Z,0.70
2019-03-21T14:00:54.748Z,1.03
2019-03-21T14:03:25.409Z,1.67
2019-03-21T14:05:55.425Z,2.23
2019-03-21T14:08:24.980Z,1.35
2019-03-21T14:10:54.517Z,1.87
2019-03-21T14:13:23.961Z,1.35
2019-03-21T14:15:53.351Z,1.10
2019-03-21T14:18:24.128Z,1.25
2019-03-21T14:20:53.601Z,0.50
2019-03-21T14:23:23.111Z,0.47
2019-03-21T14:25:52.631Z,0.97
2019-03-21T14:28:22.182Z,2.37
2019-03-21T14:30:51.625Z,1.40
2019-03-21T14:33:21.224Z,1.05
2019-03-21T14:35:50.658Z,1.05
2019-03-21T14:38:26.443Z,1.55
2019-03-21T14:40:51.192Z,0.85
2019-03-21T14:43:20.699Z,0.42
2019-03-21T14:45:50.339Z,1.60
2019-03-21T14:48:19.987Z,1.10
2019-03-21T14:50:49.416Z,0.40
2019-03-21T14:53:28.341Z,0.43
2019-03-21T14:55:49.929Z,1.30
2019-03-21T14:58:19.428Z,3.03
2019-03-21T15:00:48.954Z,0.77
2019-03-21T15:03:19.924Z,1.27
2019-03-21T15:05:49.346Z,0.20
2019-03-21T15:08:18.811Z,0.73
2019-03-21T15:10:48.241Z,1.50
2019-03-21T15:13:17.733Z,1.80
2019-03-21T15:15:47.082Z,1.52
2019-03-21T15:18:16.504Z,0.70
2019-03-21T15:20:45.953Z,0.93
2019-03-21T15:23:15.362Z,1.70
2019-03-21T15:25:45.039Z,1.10
2019-03-21T15:28:14.663Z,0.77
2019-03-21T15:30:44.088Z,1.43
2019-03-21T15:33:13.546Z,2.47
2019-03-21T15:35:43.054Z,4.27
2019-03-21T15:38:12.550Z,2.50
2019-03-21T15:40:41.922Z,2.17
2019-03-21T15:43:11.406Z,3.10
2019-03-21T15:45:40.850Z,2.20
2019-03-21T15:48:29.781Z,2.57
2019-03-21T15:51:04.311Z,2.20
2019-03-21T15:53:56.087Z,3.90
2019-03-21T15:56:20.993Z,4.73
2019-03-21T15:58:50.411Z,2.80
2019-03-21T16:01:20.047Z,2.67
2019-03-21T16:03:49.615Z,2.43
2019-03-21T16:06:19.309Z,4.57
2019-03-21T16:08:48.801Z,5.13
2019-03-21T16:11:18.248Z,5.63
2019-03-21T16:13:47.927Z,2.30
2019-03-21T16:16:17.284Z,0.97
2019-03-21T16:18:46.768Z,1.10
2019-03-21T16:21:16.504Z,2.90
2019-03-21T16:23:47.057Z,3.33
2019-03-21T16:26:16.569Z,5.27
2019-03-21T16:28:46.164Z,2.17
2019-03-21T16:31:15.798Z,1.30
2019-03-21T16:33:45.316Z,3.30
2019-03-21T16:36:14.833Z,2.10
2019-03-21T16:38:44.213Z,4.33
2019-03-21T16:41:13.768Z,2.37
2019-03-21T16:43:43.668Z,2.87
2019-03-21T16:46:13.237Z,1.67
2019-03-21T16:48:42.832Z,3.00
2019-03-21T16:51:12.371Z,3.43
2019-03-21T16:53:43.912Z,2.90
2019-03-21T16:56:13.045Z,1.73
2019-03-21T16:58:42.718Z,2.67
2019-03-21T17:01:12.186Z,2.47
2019-03-21T17:03:41.705Z,1.40
2019-03-21T17:06:11.158Z,1.20
2019-03-21T17:08:40.784Z,1.27
2019-03-21T17:11:10.208Z,1.33
2019-03-21T17:13:39.875Z,1.60
2019-03-21T17:16:09.314Z,2.93
2019-03-21T17:18:38.817Z,5.30
2019-03-21T17:21:09.501Z,2.90
2019-03-21T17:23:39.453Z,3.13
2019-03-21T17:26:08.885Z,3.10
2019-03-21T17:28:38.417Z,2.17
2019-03-21T17:31:07.928Z,2.70
2019-03-21T17:33:37.498Z,2.57
2019-03-21T17:36:07.022Z,1.80
2019-03-21T17:38:36.447Z,2.73
2019-03-21T17:41:05.956Z,0.87
2019-03-21T17:43:35.542Z,1.57
2019-03-21T17:46:06.217Z,2.17
2019-03-21T17:48:35.920Z,1.90
2019-03-21T17:51:05.817Z,2.57
2019-03-21T17:53:35.222Z,2.13
2019-03-21T17:56:05.113Z,2.40
2019-03-21T17:58:34.631Z,2.03
2019-03-21T18:01:04.255Z,2.47
2019-03-21T18:03:33.764Z,3.33
2019-03-21T18:06:03.192Z,2.00
2019-03-21T18:08:32.577Z,2.00
2019-03-21T18:11:02.091Z,6.50
2019-03-21T18:13:31.601Z,2.50
2019-03-21T18:16:01.410Z,3.70
2019-03-21T18:18:30.975Z,3.80
2019-03-21T18:21:00.985Z,3.57
2019-03-21T18:23:30.422Z,3.07
2019-03-21T18:25:59.814Z,1.30
2019-03-21T18:28:29.385Z,1.97
2019-03-21T18:30:58.860Z,2.60
2019-03-21T18:33:28.294Z,0.63
2019-03-21T18:35:57.794Z,2.77
2019-03-21T18:38:27.256Z,3.23
2019-03-21T18:40:56.740Z,3.07
2019-03-21T18:43:26.190Z,1.43
2019-03-21T18:45:55.619Z,1.17
2019-03-21T18:48:25.115Z,1.17
2019-03-21T18:50:54.755Z,1.20
2019-03-21T18:53:24.431Z,3.17
2019-03-21T18:55:53.877Z,0.97
2019-03-21T18:58:23.372Z,2.10
2019-03-21T19:00:52.830Z,1.87
2019-03-21T19:03:26.358Z,1.80
2019-03-21T19:05:57.687Z,1.07
2019-03-21T19:08:27.098Z,1.03
2019-03-21T19:10:57.216Z,0.57
2019-03-21T19:13:26.670Z,3.87
2019-03-21T19:15:56.096Z,2.23
2019-03-21T19:18:26.459Z,1.43
2019-03-21T19:20:55.879Z,5.87
2019-03-21T19:23:25.307Z,4.40
2019-03-21T19:25:54.782Z,1.07
2019-03-21T19:28:24.255Z,4.43
2019-03-21T19:30:53.707Z,2.00
2019-03-21T19:33:23.194Z,2.90
2019-03-21T19:35:52.602Z,2.17
2019-03-21T19:38:23.887Z,1.70
2019-03-21T19:40:53.239Z,3.73
2019-03-21T19:43:22.732Z,2.30
2019-03-21T19:45:52.265Z,2.13
2019-03-21T19:48:22.951Z,2.20
2019-03-21T19:50:52.399Z,1.17
2019-03-21T19:53:21.774Z,1.63
2019-03-21T19:55:51.327Z,1.33
2019-03-21T19:58:20.783Z,2.93
2019-03-21T20:01:09.723Z,3.63
2019-03-21T20:03:39.163Z,2.43
2019-03-21T20:06:08.703Z,3.03
2019-03-21T20:08:38.286Z,1.43
2019-03-21T20:11:08.326Z,2.60
2019-03-21T20:13:37.715Z,2.53
2019-03-21T20:16:07.246Z,3.53
2019-03-21T20:18:36.900Z,3.00
2019-03-21T20:21:06.486Z,2.37
2019-03-21T20:23:36.955Z,3.03
2019-03-21T20:26:06.477Z,1.43
2019-03-21T20:28:35.998Z,1.53
2019-03-21T20:31:05.500Z,1.20
2019-03-21T20:33:35.838Z,1.57
2019-03-21T20:36:05.403Z,1.27
2019-03-21T20:38:34.934Z,2.40
2019-03-21T20:41:04.510Z,2.00
2019-03-21T20:43:34.040Z,0.73
2019-03-21T20:46:03.594Z,1.20
2019-03-21T20:48:33.730Z,3.10
2019-03-21T20:51:03.159Z,1.27
2019-03-21T20:53:32.692Z,1.20
2019-03-21T20:56:02.312Z,1.10
2019-03-21T20:58:31.801Z,2.23
2019-03-21T21:01:02.400Z,0.70
2019-03-21T21:03:31.846Z,1.70
2019-03-21T21:06:02.538Z,1.10
2019-03-21T21:08:31.897Z,1.53
2019-03-21T21:11:01.353Z,0.80
2019-03-21T21:13:30.791Z,1.00
2019-03-21T21:16:00.288Z,0.83
2019-03-21T21:18:30.853Z,1.30
2019-03-21T21:21:00.342Z,0.70
2019-03-21T21:23:29.871Z,1.23
2019-03-21T21:26:05.339Z,1.50
2019-03-21T21:28:30.558Z,1.30
2019-03-21T21:31:00.176Z,1.60
2019-03-21T21:33:29.903Z,1.20
2019-03-21T21:35:59.435Z,2.10
2019-03-21T21:38:30.543Z,1.30
2019-03-21T21:40:59.933Z,3.03
2019-03-21T21:43:29.383Z,2.97
2019-03-21T21:45:59.169Z,1.47
2019-03-21T21:48:28.935Z,1.80
2019-03-21T21:50:58.488Z,2.70
2019-03-21T21:53:27.962Z,5.50
2019-03-21T21:55:57.567Z,4.30
2019-03-21T21:58:27.127Z,2.47
2019-03-21T22:00:56.650Z,2.33
2019-03-21T22:03:26.234Z,2.20
2019-03-21T22:05:55.693Z,2.93
2019-03-21T22:08:25.118Z,1.53
2019-03-21T22:10:54.663Z,2.63
2019-03-21T22:13:24.173Z,1.73
2019-03-21T22:15:54.759Z,1.67
2019-03-21T22:18:24.212Z,2.03
2019-03-21T22:20:54.692Z,1.90
2019-03-21T22:23:24.141Z,1.77
2019-03-21T22:25:53.568Z,2.07
2019-03-21T22:28:23.160Z,1.43
2019-03-21T22:30:52.684Z,2.90
2019-03-21T22:33:22.134Z,1.63
2019-03-21T22:35:51.639Z,1.50
2019-03-21T22:38:21.146Z,1.43
2019-03-21T22:40:51.417Z,1.00
2019-03-21T22:43:20.768Z,2.10
2019-03-21T22:45:51.319Z,2.07
2019-03-21T22:48:20.689Z,1.33
2019-03-21T22:50:50.146Z,2.00
2019-03-21T22:53:19.723Z,3.50
2019-03-21T22:55:49.171Z,1.10
2019-03-21T22:58:18.838Z,1.73
2019-03-21T23:00:48.789Z,2.30
2019-03-21T23:03:18.268Z,1.80
2019-03-21T23:05:47.726Z,2.77
2019-03-21T23:08:17.088Z,0.90
2019-03-21T23:10:46.615Z,1.57
2019-03-21T23:13:16.139Z,1.20
2019-03-21T23:15:45.756Z,1.00
2019-03-21T23:18:15.127Z,0.60
2019-03-21T23:20:44.492Z,0.50
2019-03-21T23:23:14.168Z,1.50
2019-03-21T23:25:43.751Z,2.60
2019-03-21T23:28:13.265Z,2.27
2019-03-21T23:30:42.753Z,0.67
2019-03-21T23:33:12.271Z,0.70
2019-03-21T23:35:41.724Z,2.37
2019-03-21T23:38:11.139Z,0.57
2019-03-21T23:40:40.654Z,2.80
2019-03-21T23:43:10.194Z,1.00
2019-03-21T23:45:39.694Z,2.60
2019-03-21T23:48:09.355Z,2.13
2019-03-21T23:50:38.793Z,2.33
2019-03-21T23:53:08.433Z,3.33
2019-03-21T23:55:37.897Z,1.23
2019-03-21T23:58:19.482Z,3.27
